sensor_id;sensor_type;location;lat;lon;timestamp;pressure;altitude;pressure_sealevel;temperature;humidity
5703;BME280;2876;51.738;10.050;2022-10-31T00:04:25;99701.13;;;13.19;98.65
5703;BME280;2876;51.738;10.050;2022-10-31T00:10:27;99705.06;;;13.17;98.50
5703;BME280;2876;51.738;10.050;2022-10-31T00:16:30;99715.19;;;13.02;98.87
5703;BME280;2876;51.738;10.050;2022-10-31T00:28:51;99720.56;;;12.82;98.08
5703;BME280;2876;51.738;10.050;2022-10-31T00:42:01;99724.13;;;12.95;100.00
5703;BME280;2876;51.738;10.050;2022-10-31T00:48:44;99731.97;;;12.97;100.00
5703;BME280;2876;51.738;10.050;2022-10-31T00:54:49;99730.91;;;12.85;99.96
5703;BME280;2876;51.738;10.050;2022-10-31T01:00:53;99737.34;;;12.77;99.50
5703;BME280;2876;51.738;10.050;2022-10-31T01:06:58;99728.59;;;12.62;100.00
5703;BME280;2876;51.738;10.050;2022-10-31T01:13:00;99740.16;;;12.56;100.00
5703;BME280;2876;51.738;10.050;2022-10-31T01:19:02;99750.00;;;12.29;99.50
5703;BME280;2876;51.738;10.050;2022-10-31T01:25:05;99734.59;;;12.09;99.15
5703;BME280;2876;51.738;10.050;2022-10-31T01:31:08;99761.03;;;11.99;98.97
5703;BME280;2876;51.738;10.050;2022-10-31T01:37:11;99755.94;;;11.83;100.00
5703;BME280;2876;51.738;10.050;2022-10-31T01:43:13;99756.44;;;11.72;100.00
5703;BME280;2876;51.738;10.050;2022-10-31T01:49:23;99749.28;;;11.79;100.00
5703;BME280;2876;51.738;10.050;2022-10-31T01:55:40;99760.16;;;11.99;100.00
5703;BME280;2876;51.738;10.050;2022-10-31T02:01:44;99764.34;;;12.08;100.00
5703;BME280;2876;51.738;10.050;2022-10-31T02:08:23;99755.69;;;12.06;100.00
5703;BME280;2876;51.738;10.050;2022-10-31T02:14:30;99756.25;;;11.95;100.00
5703;BME280;2876;51.738;10.050;2022-10-31T02:47:34;99774.19;;;11.66;100.00
5703;BME280;2876;51.738;10.050;2022-10-31T02:53:57;99775.81;;;11.60;100.00
5703;BME280;2876;51.738;10.050;2022-10-31T03:00:05;99792.38;;;11.64;100.00
5703;BME280;2876;51.738;10.050;2022-10-31T03:06:33;99786.22;;;11.70;100.00
5703;BME280;2876;51.738;10.050;2022-10-31T03:19:16;99779.72;;;11.58;100.00
5703;BME280;2876;51.738;10.050;2022-10-31T03:25:19;99782.47;;;11.64;100.00
5703;BME280;2876;51.738;10.050;2022-10-31T03:31:27;99785.19;;;11.71;100.00
5703;BME280;2876;51.738;10.050;2022-10-31T03:37:40;99773.75;;;11.62;100.00
5703;BME280;2876;51.738;10.050;2022-10-31T03:44:06;99776.75;;;11.46;100.00
5703;BME280;2876;51.738;10.050;2022-10-31T03:50:12;99786.22;;;11.42;100.00
5703;BME280;2876;51.738;10.050;2022-10-31T03:56:37;99791.38;;;11.43;100.00
5703;BME280;2876;51.738;10.050;2022-10-31T04:02:53;99790.88;;;11.33;100.00
5703;BME280;2876;51.738;10.050;2022-10-31T04:09:03;99779.63;;;11.23;100.00
5703;BME280;2876;51.738;10.050;2022-10-31T04:15:07;99787.19;;;11.13;100.00
5703;BME280;2876;51.738;10.050;2022-10-31T04:21:11;99783.41;;;11.07;100.00
5703;BME280;2876;51.738;10.050;2022-10-31T04:27:13;99806.97;;;10.90;100.00
5703;BME280;2876;51.738;10.050;2022-10-31T04:33:15;99801.22;;;10.72;100.00
5703;BME280;2876;51.738;10.050;2022-10-31T04:39:17;99807.13;;;10.68;100.00
5703;BME280;2876;51.738;10.050;2022-10-31T04:45:27;99790.63;;;10.49;100.00
5703;BME280;2876;51.738;10.050;2022-10-31T04:51:29;99803.16;;;10.49;100.00
5703;BME280;2876;51.738;10.050;2022-10-31T04:57:31;99798.53;;;10.57;100.00
5703;BME280;2876;51.738;10.050;2022-10-31T05:03:33;99791.22;;;10.66;100.00
5703;BME280;2876;51.738;10.050;2022-10-31T05:09:35;99790.31;;;10.59;100.00
5703;BME280;2876;51.738;10.050;2022-10-31T05:15:37;99805.84;;;10.49;100.00
5703;BME280;2876;51.738;10.050;2022-10-31T05:21:39;99799.22;;;10.30;100.00
5703;BME280;2876;51.738;10.050;2022-10-31T05:27:46;99786.22;;;10.27;100.00
5703;BME280;2876;51.738;10.050;2022-10-31T05:33:49;99801.63;;;10.25;100.00
5703;BME280;2876;51.738;10.050;2022-10-31T05:39:51;99807.44;;;10.13;100.00
5703;BME280;2876;51.738;10.050;2022-10-31T05:45:56;99810.66;;;10.09;100.00
5703;BME280;2876;51.738;10.050;2022-10-31T05:51:58;99820.81;;;9.99;100.00
5703;BME280;2876;51.738;10.050;2022-10-31T05:58:00;99816.19;;;9.93;100.00
5703;BME280;2876;51.738;10.050;2022-10-31T06:04:03;99812.75;;;9.99;100.00
5703;BME280;2876;51.738;10.050;2022-10-31T06:10:07;99826.63;;;10.02;100.00
5703;BME280;2876;51.738;10.050;2022-10-31T06:16:09;99814.91;;;10.18;100.00
5703;BME280;2876;51.738;10.050;2022-10-31T06:22:28;99812.25;;;10.33;100.00
5703;BME280;2876;51.738;10.050;2022-10-31T06:28:38;99812.44;;;10.46;100.00
5703;BME280;2876;51.738;10.050;2022-10-31T06:34:54;99821.22;;;10.55;100.00
5703;BME280;2876;51.738;10.050;2022-10-31T06:41:23;99820.25;;;10.62;100.00
5703;BME280;2876;51.738;10.050;2022-10-31T06:55:50;99834.94;;;11.17;100.00
5703;BME280;2876;51.738;10.050;2022-10-31T07:01:52;99829.16;;;11.21;100.00
5703;BME280;2876;51.738;10.050;2022-10-31T07:08:01;99830.72;;;11.30;100.00
5703;BME280;2876;51.738;10.050;2022-10-31T07:14:11;99851.25;;;11.37;100.00
5703;BME280;2876;51.738;10.050;2022-10-31T07:20:17;99835.81;;;11.67;100.00
5703;BME280;2876;51.738;10.050;2022-10-31T07:26:19;99827.47;;;12.12;100.00
5703;BME280;2876;51.738;10.050;2022-10-31T07:32:21;99845.47;;;12.46;100.00
5703;BME280;2876;51.738;10.050;2022-10-31T07:38:24;99847.47;;;12.72;100.00
5703;BME280;2876;51.738;10.050;2022-10-31T07:44:25;99830.28;;;12.80;100.00
5703;BME280;2876;51.738;10.050;2022-10-31T07:50:32;99843.38;;;12.83;100.00
5703;BME280;2876;51.738;10.050;2022-10-31T07:56:35;99846.66;;;12.78;100.00
5703;BME280;2876;51.738;10.050;2022-10-31T08:02:37;99835.84;;;12.72;100.00
5703;BME280;2876;51.738;10.050;2022-10-31T08:08:39;99836.50;;;12.74;97.81
5703;BME280;2876;51.738;10.050;2022-10-31T08:14:41;99837.31;;;12.74;98.89
5703;BME280;2876;51.738;10.050;2022-10-31T08:20:43;99849.63;;;12.90;97.71
5703;BME280;2876;51.738;10.050;2022-10-31T08:26:45;99847.75;;;12.97;98.21
5703;BME280;2876;51.738;10.050;2022-10-31T08:33:11;99842.53;;;12.89;97.46
5703;BME280;2876;51.738;10.050;2022-10-31T08:39:13;99838.84;;;12.97;97.16
5703;BME280;2876;51.738;10.050;2022-10-31T08:45:15;99838.03;;;13.03;97.79
5703;BME280;2876;51.738;10.050;2022-10-31T08:51:18;99836.88;;;13.25;97.56
5703;BME280;2876;51.738;10.050;2022-10-31T08:57:20;99835.25;;;13.31;97.77
5703;BME280;2876;51.738;10.050;2022-10-31T09:03:28;99833.59;;;13.43;97.67
5703;BME280;2876;51.738;10.050;2022-10-31T09:09:30;99834.88;;;13.54;97.42
5703;BME280;2876;51.738;10.050;2022-10-31T09:22:25;99822.00;;;13.95;96.43
5703;BME280;2876;51.738;10.050;2022-10-31T09:28:27;99820.53;;;14.13;95.79
5703;BME280;2876;51.738;10.050;2022-10-31T09:40:37;99815.91;;;14.85;92.39
5703;BME280;2876;51.738;10.050;2022-10-31T09:47:00;99810.75;;;15.21;91.09
5703;BME280;2876;51.738;10.050;2022-10-31T09:59:34;99806.44;;;15.70;90.63
5703;BME280;2876;51.738;10.050;2022-10-31T10:05:53;99810.66;;;15.91;88.06
5703;BME280;2876;51.738;10.050;2022-10-31T10:12:09;99799.56;;;16.18;87.99
5703;BME280;2876;51.738;10.050;2022-10-31T10:31:13;99787.28;;;16.52;85.86
5703;BME280;2876;51.738;10.050;2022-10-31T10:44:55;99769.75;;;17.03;84.68
5703;BME280;2876;51.738;10.050;2022-10-31T10:58:10;99757.41;;;17.72;81.81
5703;BME280;2876;51.738;10.050;2022-10-31T11:04:33;99746.66;;;17.89;80.33
5703;BME280;2876;51.738;10.050;2022-10-31T11:10:36;99741.59;;;18.05;80.32
5703;BME280;2876;51.738;10.050;2022-10-31T11:16:46;99736.75;;;18.47;79.38
5703;BME280;2876;51.738;10.050;2022-10-31T11:23:19;99722.94;;;18.48;79.28
5703;BME280;2876;51.738;10.050;2022-10-31T11:29:25;99721.47;;;18.69;78.77
5703;BME280;2876;51.738;10.050;2022-10-31T11:35:30;99713.50;;;18.80;78.96
5703;BME280;2876;51.738;10.050;2022-10-31T11:41:36;99719.69;;;19.37;77.54
5703;BME280;2876;51.738;10.050;2022-10-31T11:47:47;99698.91;;;19.31;77.03
5703;BME280;2876;51.738;10.050;2022-10-31T11:54:04;99699.03;;;19.75;75.22
5703;BME280;2876;51.738;10.050;2022-10-31T12:00:33;99693.97;;;20.00;74.94
5703;BME280;2876;51.738;10.050;2022-10-31T12:06:41;99690.91;;;20.63;72.08
5703;BME280;2876;51.738;10.050;2022-10-31T13:05:03;99614.47;;;21.54;69.99
5703;BME280;2876;51.738;10.050;2022-10-31T13:11:19;99598.56;;;21.41;70.58
5703;BME280;2876;51.738;10.050;2022-10-31T13:17:39;99587.94;;;21.44;70.00
5703;BME280;2876;51.738;10.050;2022-10-31T13:23:43;99582.41;;;21.34;70.43
5703;BME280;2876;51.738;10.050;2022-10-31T13:36:33;99556.88;;;20.44;73.05
5703;BME280;2876;51.738;10.050;2022-10-31T13:55:49;99533.88;;;19.59;76.72
5703;BME280;2876;51.738;10.050;2022-10-31T14:01:57;99524.81;;;19.31;77.21
5703;BME280;2876;51.738;10.050;2022-10-31T14:08:04;99525.13;;;19.13;77.62
5703;BME280;2876;51.738;10.050;2022-10-31T14:14:11;99520.78;;;18.95;78.56
5703;BME280;2876;51.738;10.050;2022-10-31T14:26:18;99522.97;;;18.47;81.42
5703;BME280;2876;51.738;10.050;2022-10-31T14:32:26;99516.56;;;18.37;80.32
5703;BME280;2876;51.738;10.050;2022-10-31T14:38:46;99517.69;;;18.24;80.89
5703;BME280;2876;51.738;10.050;2022-10-31T14:51:23;99510.03;;;18.04;81.65
5703;BME280;2876;51.738;10.050;2022-10-31T14:57:34;99500.00;;;17.64;83.10
5703;BME280;2876;51.738;10.050;2022-10-31T15:03:45;99480.69;;;17.89;81.81
5703;BME280;2876;51.738;10.050;2022-10-31T15:10:31;99477.97;;;17.61;82.89
5703;BME280;2876;51.738;10.050;2022-10-31T15:16:42;99471.97;;;17.59;82.94
5703;BME280;2876;51.738;10.050;2022-10-31T15:22:44;99462.75;;;17.60;83.03
5703;BME280;2876;51.738;10.050;2022-10-31T15:29:02;99458.16;;;17.32;83.93
5703;BME280;2876;51.738;10.050;2022-10-31T15:35:10;99451.19;;;17.36;83.86
5703;BME280;2876;51.738;10.050;2022-10-31T15:41:33;99452.06;;;17.13;84.37
5703;BME280;2876;51.738;10.050;2022-10-31T15:47:37;99454.47;;;16.86;85.59
5703;BME280;2876;51.738;10.050;2022-10-31T15:53:48;99455.50;;;16.61;86.43
5703;BME280;2876;51.738;10.050;2022-10-31T15:59:52;99449.84;;;16.51;87.63
5703;BME280;2876;51.738;10.050;2022-10-31T16:06:00;99452.34;;;16.41;88.15
5703;BME280;2876;51.738;10.050;2022-10-31T16:12:03;99440.66;;;16.52;88.32
5703;BME280;2876;51.738;10.050;2022-10-31T16:18:05;99436.66;;;16.43;88.30
5703;BME280;2876;51.738;10.050;2022-10-31T16:24:29;99428.66;;;16.36;88.68
5703;BME280;2876;51.738;10.050;2022-10-31T16:30:39;99423.47;;;16.35;88.64
5703;BME280;2876;51.738;10.050;2022-10-31T16:36:48;99415.47;;;16.63;87.72
5703;BME280;2876;51.738;10.050;2022-10-31T16:43:05;99418.31;;;16.33;89.12
5703;BME280;2876;51.738;10.050;2022-10-31T16:49:11;99421.34;;;16.25;89.55
5703;BME280;2876;51.738;10.050;2022-10-31T16:55:15;99419.59;;;16.42;88.78
5703;BME280;2876;51.738;10.050;2022-10-31T17:01:17;99426.78;;;16.48;88.87
5703;BME280;2876;51.738;10.050;2022-10-31T17:07:19;99420.75;;;16.11;89.93
5703;BME280;2876;51.738;10.050;2022-10-31T17:13:25;99419.69;;;16.01;90.17
5703;BME280;2876;51.738;10.050;2022-10-31T17:19:28;99418.75;;;15.95;91.39
5703;BME280;2876;51.738;10.050;2022-10-31T17:25:30;99404.59;;;15.93;91.43
5703;BME280;2876;51.738;10.050;2022-10-31T17:31:35;99390.72;;;15.89;91.66
5703;BME280;2876;51.738;10.050;2022-10-31T17:37:38;99381.44;;;15.97;91.58
5703;BME280;2876;51.738;10.050;2022-10-31T17:43:40;99367.06;;;15.85;92.26
5703;BME280;2876;51.738;10.050;2022-10-31T17:49:42;99367.66;;;15.87;93.38
5703;BME280;2876;51.738;10.050;2022-10-31T17:55:44;99370.94;;;15.89;93.51
5703;BME280;2876;51.738;10.050;2022-10-31T18:01:46;99356.56;;;15.65;94.22
5703;BME280;2876;51.738;10.050;2022-10-31T18:07:49;99344.38;;;15.74;95.16
5703;BME280;2876;51.738;10.050;2022-10-31T18:13:56;99346.06;;;15.57;95.91
5703;BME280;2876;51.738;10.050;2022-10-31T18:19:58;99339.34;;;15.47;96.56
5703;BME280;2876;51.738;10.050;2022-10-31T18:26:00;99348.88;;;15.50;96.99
5703;BME280;2876;51.738;10.050;2022-10-31T18:32:02;99354.34;;;15.73;96.77
5703;BME280;2876;51.738;10.050;2022-10-31T18:44:28;99334.28;;;15.51;97.83
5703;BME280;2876;51.738;10.050;2022-10-31T18:50:31;99336.00;;;15.34;98.33
5703;BME280;2876;51.738;10.050;2022-10-31T18:56:33;99335.16;;;15.21;98.68
5703;BME280;2876;51.738;10.050;2022-10-31T19:02:35;99332.97;;;15.12;99.54
5703;BME280;2876;51.738;10.050;2022-10-31T19:08:38;99328.38;;;15.01;99.53
5703;BME280;2876;51.738;10.050;2022-10-31T19:14:40;99309.56;;;14.76;100.00
5703;BME280;2876;51.738;10.050;2022-10-31T19:20:42;99292.47;;;14.82;99.13
5703;BME280;2876;51.738;10.050;2022-10-31T19:26:44;99293.47;;;14.69;100.00
5703;BME280;2876;51.738;10.050;2022-10-31T19:32:47;99305.09;;;14.69;100.00
5703;BME280;2876;51.738;10.050;2022-10-31T19:38:51;99279.19;;;14.43;100.00
5703;BME280;2876;51.738;10.050;2022-10-31T19:44:55;99259.69;;;14.78;100.00
5703;BME280;2876;51.738;10.050;2022-10-31T19:51:06;99239.47;;;14.69;100.00
5703;BME280;2876;51.738;10.050;2022-10-31T19:57:19;99237.28;;;14.78;100.00
5703;BME280;2876;51.738;10.050;2022-10-31T20:04:33;99218.31;;;14.96;100.00
5703;BME280;2876;51.738;10.050;2022-10-31T20:10:35;99202.59;;;15.16;100.00
5703;BME280;2876;51.738;10.050;2022-10-31T20:16:38;99186.31;;;15.35;99.43
5703;BME280;2876;51.738;10.050;2022-10-31T20:22:40;99193.22;;;15.19;99.64
5703;BME280;2876;51.738;10.050;2022-10-31T20:28:44;99193.72;;;15.28;99.54
5703;BME280;2876;51.738;10.050;2022-10-31T20:48:43;99166.78;;;15.09;99.73
5703;BME280;2876;51.738;10.050;2022-10-31T20:54:47;99174.16;;;14.90;100.00
5703;BME280;2876;51.738;10.050;2022-10-31T21:07:16;99191.31;;;14.66;100.00
5703;BME280;2876;51.738;10.050;2022-10-31T21:13:18;99192.69;;;14.57;100.00
5703;BME280;2876;51.738;10.050;2022-10-31T21:19:20;99201.31;;;14.65;100.00
5703;BME280;2876;51.738;10.050;2022-10-31T21:25:22;99199.78;;;14.21;100.00
5703;BME280;2876;51.738;10.050;2022-10-31T21:31:33;99167.28;;;13.98;100.00
5703;BME280;2876;51.738;10.050;2022-10-31T21:37:35;99161.69;;;13.99;100.00
5703;BME280;2876;51.738;10.050;2022-10-31T21:43:40;99144.97;;;14.09;100.00
5703;BME280;2876;51.738;10.050;2022-10-31T21:49:43;99132.59;;;14.01;100.00
5703;BME280;2876;51.738;10.050;2022-10-31T21:56:02;99123.94;;;13.99;100.00
5703;BME280;2876;51.738;10.050;2022-10-31T22:02:07;99133.78;;;14.05;100.00
5703;BME280;2876;51.738;10.050;2022-10-31T22:08:11;99146.09;;;14.01;100.00
5703;BME280;2876;51.738;10.050;2022-10-31T22:14:14;99141.47;;;13.90;100.00
5703;BME280;2876;51.738;10.050;2022-10-31T22:20:16;99124.28;;;13.84;100.00
5703;BME280;2876;51.738;10.050;2022-10-31T22:26:19;99123.72;;;13.45;100.00
5703;BME280;2876;51.738;10.050;2022-10-31T22:32:21;99130.44;;;13.36;100.00
5703;BME280;2876;51.738;10.050;2022-10-31T22:38:28;99129.94;;;13.64;100.00
5703;BME280;2876;51.738;10.050;2022-10-31T22:44:41;99157.13;;;13.63;100.00
5703;BME280;2876;51.738;10.050;2022-10-31T22:50:43;99157.00;;;13.51;100.00
5703;BME280;2876;51.738;10.050;2022-10-31T22:56:45;99153.78;;;13.42;100.00
5703;BME280;2876;51.738;10.050;2022-10-31T23:02:47;99152.28;;;13.47;100.00
5703;BME280;2876;51.738;10.050;2022-10-31T23:08:50;99161.41;;;13.20;100.00
5703;BME280;2876;51.738;10.050;2022-10-31T23:14:53;99145.59;;;13.06;100.00
5703;BME280;2876;51.738;10.050;2022-10-31T23:20:55;99133.94;;;12.87;100.00
5703;BME280;2876;51.738;10.050;2022-10-31T23:26:58;99117.25;;;12.78;100.00
5703;BME280;2876;51.738;10.050;2022-10-31T23:33:12;99132.41;;;12.73;100.00
5703;BME280;2876;51.738;10.050;2022-10-31T23:39:14;99133.63;;;13.02;100.00
5703;BME280;2876;51.738;10.050;2022-10-31T23:45:22;99119.09;;;13.03;100.00
5703;BME280;2876;51.738;10.050;2022-10-31T23:51:24;99111.38;;;12.88;100.00
5703;BME280;2876;51.738;10.050;2022-10-31T23:57:25;99114.59;;;12.97;100.00
